Time;durP1;ratioP1;P1;durP2;ratioP2;P2;SDS_P1;SDS_P2;PMS_P1;PMS_P2;Temp;Humidity;BMP_temperature;BMP_pressure;BME280_temperature;BME280_humidity;BME280_pressure;Samples;Min_cycle;Max_cycle;Signal;HPM_P1;HPM_P2
2023/01/10 00:01:59;;;;;;;2.87;1.50;;;3.30;99.90;;;;;;5066128;28;20843;-60
2023/01/10 00:04:29;;;;;;;1.73;1.37;;;3.30;99.90;;;;;;5066755;28;20197;-59
2023/01/10 00:06:55;;;;;;;1.50;1.30;;;3.30;99.90;;;;;;5064598;28;20209;-60
2023/01/10 00:09:21;;;;;;;4.47;1.20;;;3.30;99.90;;;;;;5063028;28;20448;-60
2023/01/10 00:14:33;;;;;;;1.57;1.47;;;3.30;99.90;;;;;;5058528;28;20213;-60
2023/01/10 00:17:02;;;;;;;1.20;1.10;;;3.30;99.90;;;;;;5061025;28;20482;-60
2023/01/10 00:19:28;;;;;;;2.20;1.23;;;3.30;99.90;;;;;;5065373;28;20462;-60
2023/01/10 00:22:01;;;;;;;1.90;1.20;;;3.30;99.90;;;;;;5065811;28;20515;-60
2023/01/10 00:24:27;;;;;;;1.30;1.20;;;3.40;99.90;;;;;;5058768;28;20177;-60
2023/01/10 00:26:53;;;;;;;1.77;1.10;;;3.40;99.90;;;;;;5066905;28;20468;-60
2023/01/10 00:29:27;;;;;;;2.70;1.57;;;3.30;99.90;;;;;;5060807;28;22385;-60
2023/01/10 00:31:53;;;;;;;1.37;1.27;;;3.30;99.90;;;;;;5067520;28;20435;-60
2023/01/10 00:34:19;;;;;;;1.53;1.43;;;3.30;99.90;;;;;;5062863;28;20533;-59
2023/01/10 00:36:49;;;;;;;1.63;1.17;;;3.30;99.90;;;;;;5065599;28;20953;-60
2023/01/10 00:39:16;;;;;;;1.40;1.30;;;3.30;99.90;;;;;;5054240;28;20429;-60
2023/01/10 00:44:26;;;;;;;1.60;1.23;;;3.30;99.90;;;;;;5060637;28;20443;-60
2023/01/10 00:46:52;;;;;;;2.43;1.10;;;3.30;99.90;;;;;;5062808;28;20456;-60
2023/01/10 00:49:18;;;;;;;1.10;0.97;;;3.30;99.90;;;;;;5064479;28;20719;-60
2023/01/10 00:51:44;;;;;;;0.87;0.87;;;3.20;99.90;;;;;;5069788;28;20439;-60
2023/01/10 00:54:10;;;;;;;1.53;1.27;;;3.20;99.90;;;;;;5068955;28;20327;-60
2023/01/10 00:56:36;;;;;;;1.60;1.07;;;3.20;99.90;;;;;;5058738;28;20528;-60
2023/01/10 00:59:03;;;;;;;1.80;0.90;;;3.20;99.90;;;;;;5069498;28;20439;-60
2023/01/10 01:01:28;;;;;;;1.20;1.10;;;3.20;99.90;;;;;;5065557;28;21688;-60
2023/01/10 01:03:54;;;;;;;1.30;1.20;;;3.20;99.90;;;;;;5066768;28;20467;-59
2023/01/10 01:06:19;;;;;;;1.70;0.90;;;3.20;99.90;;;;;;5059494;28;20198;-60
2023/01/10 01:08:45;;;;;;;1.13;1.03;;;3.20;99.90;;;;;;5065751;28;20183;-60
2023/01/10 01:11:11;;;;;;;1.00;1.00;;;3.10;99.90;;;;;;5070617;28;20231;-60
2023/01/10 01:13:36;;;;;;;2.03;1.50;;;3.10;99.90;;;;;;5068940;28;20193;-60
2023/01/10 01:16:02;;;;;;;2.10;1.63;;;3.10;99.90;;;;;;5066013;28;20288;-59
2023/01/10 01:18:28;;;;;;;2.30;1.27;;;3.10;99.90;;;;;;5067512;28;20182;-60
2023/01/10 01:20:56;;;;;;;1.20;1.10;;;3.00;99.90;;;;;;5066656;28;20166;-60
2023/01/10 01:23:22;;;;;;;1.63;1.30;;;3.00;99.90;;;;;;5051319;28;20825;-60
2023/01/10 01:25:52;;;;;;;1.00;1.00;;;3.00;99.90;;;;;;5065102;28;20464;-60
2023/01/10 01:28:18;;;;;;;0.93;0.90;;;2.90;99.90;;;;;;5071252;28;20457;-60
2023/01/10 01:30:44;;;;;;;0.93;0.93;;;2.90;99.90;;;;;;5066980;28;20463;-60
2023/01/10 01:33:09;;;;;;;1.10;1.10;;;2.90;99.90;;;;;;5069816;28;20432;-59
2023/01/10 01:35:35;;;;;;;1.73;1.10;;;2.80;99.90;;;;;;5067466;28;20550;-60
2023/01/10 01:38:01;;;;;;;3.07;1.00;;;2.90;99.90;;;;;;5065127;28;20179;-60
2023/01/10 01:40:27;;;;;;;1.60;1.00;;;2.90;99.90;;;;;;5066653;28;20181;-60
2023/01/10 01:42:54;;;;;;;1.60;1.50;;;2.90;99.90;;;;;;5068932;28;20432;-60
2023/01/10 01:45:23;;;;;;;1.10;1.10;;;2.90;99.90;;;;;;5062248;28;20296;-60
2023/01/10 01:47:56;;;;;;;1.50;1.40;;;2.90;99.90;;;;;;5067412;28;20436;-60
2023/01/10 01:50:35;;;;;;;1.03;1.03;;;3.00;99.90;;;;;;5069157;28;20428;-60
2023/01/10 01:53:08;;;;;;;3.33;1.10;;;3.00;99.90;;;;;;5065356;28;20502;-60
2023/01/10 01:55:35;;;;;;;1.00;1.00;;;3.00;99.90;;;;;;5071494;28;20543;-60
2023/01/10 01:58:05;;;;;;;1.23;1.03;;;3.00;99.90;;;;;;5071667;28;20455;-60
2023/01/10 02:00:31;;;;;;;6.20;1.33;;;3.00;99.90;;;;;;5068658;28;20562;-59
2023/01/10 02:02:59;;;;;;;1.10;1.00;;;3.00;99.90;;;;;;5068718;28;20519;-60
2023/01/10 02:05:25;;;;;;;1.47;1.23;;;3.00;99.90;;;;;;5064953;28;20732;-60
2023/01/10 02:07:57;;;;;;;1.33;1.20;;;3.00;99.90;;;;;;5065822;28;20432;-59
2023/01/10 02:10:41;;;;;;;1.50;1.40;;;3.00;99.90;;;;;;5067133;28;20429;-60
2023/01/10 02:13:10;;;;;;;1.47;1.20;;;3.00;99.90;;;;;;5067039;28;20420;-60
2023/01/10 02:15:35;;;;;;;4.03;1.27;;;3.00;99.90;;;;;;5062363;28;20851;-60
2023/01/10 02:18:03;;;;;;;1.47;1.37;;;3.10;99.90;;;;;;5068447;28;20435;-60
2023/01/10 02:20:53;;;;;;;1.60;1.20;;;3.10;99.90;;;;;;5070027;28;20174;-60
2023/01/10 02:23:40;;;;;;;2.20;1.30;;;3.10;99.90;;;;;;5065647;28;20535;-60
2023/01/10 02:26:15;;;;;;;3.23;1.33;;;3.10;99.90;;;;;;5063821;28;20511;-60
2023/01/10 02:29:18;;;;;;;1.13;1.10;;;3.10;99.90;;;;;;5060860;28;20436;-60
2023/01/10 02:32:24;;;;;;;1.00;1.00;;;3.10;99.90;;;;;;5058449;28;20494;-60
2023/01/10 02:35:20;;;;;;;0.80;0.80;;;3.10;99.90;;;;;;5058486;28;20889;-60
2023/01/10 02:38:10;;;;;;;3.43;1.23;;;3.10;99.90;;;;;;5073063;28;21105;-60
2023/01/10 02:41:14;;;;;;;3.27;1.20;;;3.10;99.90;;;;;;5063959;28;20442;-60
2023/01/10 02:43:52;;;;;;;0.83;0.83;;;3.10;99.90;;;;;;5067816;28;20437;-60
2023/01/10 02:46:24;;;;;;;1.00;0.97;;;3.10;99.90;;;;;;5060635;28;20475;-60
2023/01/10 02:48:51;;;;;;;0.80;0.80;;;3.10;99.90;;;;;;5067248;28;20409;-59
2023/01/10 02:51:35;;;;;;;0.80;0.80;;;3.10;99.90;;;;;;5070891;28;20967;-60
2023/01/10 02:54:23;;;;;;;1.93;0.90;;;3.10;99.90;;;;;;5066425;28;20779;-60
2023/01/10 02:57:02;;;;;;;0.80;0.80;;;3.10;99.90;;;;;;5060030;28;20634;-61
2023/01/10 02:59:41;;;;;;;1.00;0.90;;;3.10;99.90;;;;;;5068796;28;20488;-60
2023/01/10 03:02:28;;;;;;;1.33;1.23;;;3.10;99.90;;;;;;5060628;28;21268;-60
2023/01/10 03:05:26;;;;;;;0.80;0.80;;;3.10;99.90;;;;;;5062896;28;20523;-60
2023/01/10 03:08:31;;;;;;;0.90;0.90;;;3.10;99.90;;;;;;5070393;28;20468;-60
2023/01/10 03:11:06;;;;;;;0.93;0.90;;;3.00;99.90;;;;;;5066817;28;20525;-60
2023/01/10 03:13:59;;;;;;;0.93;0.93;;;3.00;99.90;;;;;;5069737;28;20443;-60
2023/01/10 03:16:28;;;;;;;0.90;0.87;;;3.00;99.90;;;;;;5065517;28;20888;-60
2023/01/10 03:19:10;;;;;;;0.73;0.73;;;3.00;99.90;;;;;;5066639;28;20422;-60
2023/01/10 03:21:37;;;;;;;1.03;0.80;;;3.00;99.90;;;;;;5068605;28;20447;-60
2023/01/10 03:24:09;;;;;;;0.70;0.70;;;3.00;99.90;;;;;;5060588;28;20425;-59
2023/01/10 03:27:00;;;;;;;1.03;1.03;;;3.00;99.90;;;;;;5067192;28;20543;-60
2023/01/10 03:29:41;;;;;;;1.23;0.80;;;3.00;99.90;;;;;;5063250;28;20495;-60
2023/01/10 03:32:10;;;;;;;1.00;1.00;;;2.90;99.90;;;;;;5060918;28;20935;-60
2023/01/10 03:34:37;;;;;;;1.53;1.10;;;2.90;99.90;;;;;;5064237;28;20474;-60
2023/01/10 03:37:12;;;;;;;1.73;1.20;;;2.90;99.90;;;;;;5060964;28;21272;-60
2023/01/10 03:39:56;;;;;;;0.87;0.87;;;2.90;99.90;;;;;;5067779;28;20426;-60
2023/01/10 03:45:32;;;;;;;1.70;1.30;;;2.90;99.90;;;;;;5066203;28;20513;-59
2023/01/10 03:48:01;;;;;;;1.40;1.20;;;2.90;99.90;;;;;;5068657;28;20475;-60
2023/01/10 03:50:28;;;;;;;1.77;1.23;;;2.90;99.90;;;;;;5076822;28;20450;-60
2023/01/10 03:52:55;;;;;;;6.23;1.63;;;2.90;99.90;;;;;;5060000;28;21114;-60
2023/01/10 03:55:23;;;;;;;3.87;1.70;;;2.90;99.90;;;;;;5064803;28;20460;-60
2023/01/10 03:57:49;;;;;;;1.23;1.17;;;2.90;99.90;;;;;;5068454;28;20815;-59
2023/01/10 04:00:16;;;;;;;4.10;1.70;;;2.90;99.90;;;;;;5067775;28;20455;-60
2023/01/10 04:02:42;;;;;;;4.00;1.30;;;2.80;99.90;;;;;;5070494;28;20184;-59
2023/01/10 04:05:08;;;;;;;2.53;1.27;;;2.80;99.90;;;;;;5064682;28;20557;-60
2023/01/10 04:07:33;;;;;;;5.30;1.50;;;2.80;99.90;;;;;;5065477;28;20483;-59
2023/01/10 04:09:59;;;;;;;4.40;2.00;;;2.80;99.90;;;;;;5056019;28;20186;-60
2023/01/10 04:12:25;;;;;;;6.70;1.80;;;2.80;99.90;;;;;;5063746;28;20193;-60
2023/01/10 04:14:51;;;;;;;4.37;1.37;;;2.80;99.90;;;;;;5063766;28;20171;-60
2023/01/10 04:17:17;;;;;;;3.03;1.30;;;2.80;99.90;;;;;;5059937;28;21013;-59
2023/01/10 04:19:43;;;;;;;4.43;1.27;;;2.80;99.90;;;;;;5063436;28;20178;-60
2023/01/10 04:22:10;;;;;;;6.93;1.27;;;2.80;99.90;;;;;;5072388;28;20424;-59
2023/01/10 04:24:35;;;;;;;2.10;1.50;;;2.80;99.90;;;;;;5064913;28;20852;-60
2023/01/10 04:27:01;;;;;;;8.83;1.97;;;2.80;99.90;;;;;;5067129;28;20440;-60
2023/01/10 04:29:27;;;;;;;12.50;1.63;;;2.80;99.90;;;;;;5067936;28;20734;-60
2023/01/10 04:31:52;;;;;;;4.27;1.70;;;2.80;99.90;;;;;;5065941;28;20714;-60
2023/01/10 04:34:19;;;;;;;3.40;1.73;;;2.80;99.90;;;;;;5068766;28;20193;-59
2023/01/10 04:36:45;;;;;;;7.40;1.70;;;2.80;99.90;;;;;;5069145;28;20209;-60
2023/01/10 04:39:11;;;;;;;6.57;1.93;;;2.70;99.90;;;;;;5064824;28;20435;-59
2023/01/10 04:41:37;;;;;;;3.93;1.80;;;2.60;99.90;;;;;;5070226;28;20803;-59
2023/01/10 04:44:03;;;;;;;5.63;1.77;;;2.60;99.90;;;;;;5065366;28;20417;-60
2023/01/10 04:46:29;;;;;;;4.37;1.47;;;2.60;99.90;;;;;;5062689;28;20205;-60
2023/01/10 04:48:54;;;;;;;5.13;1.70;;;2.60;99.90;;;;;;5072641;28;20992;-60
2023/01/10 04:51:20;;;;;;;2.33;1.50;;;2.60;99.90;;;;;;5070692;28;20174;-60
2023/01/10 04:53:46;;;;;;;6.37;2.97;;;2.60;99.90;;;;;;5050547;28;20784;-60
2023/01/10 04:56:18;;;;;;;3.10;1.70;;;2.60;99.90;;;;;;5061212;28;21044;-59
2023/01/10 04:58:44;;;;;;;3.73;1.60;;;2.60;99.90;;;;;;5064711;28;20180;-60
2023/01/10 05:01:13;;;;;;;5.67;1.83;;;2.60;99.90;;;;;;5066173;28;20934;-60
2023/01/10 05:03:38;;;;;;;2.97;1.53;;;2.60;99.90;;;;;;5062766;28;20435;-60
2023/01/10 05:06:04;;;;;;;4.37;1.80;;;2.60;99.90;;;;;;5065841;28;20841;-60
2023/01/10 05:08:30;;;;;;;6.13;2.10;;;2.60;99.90;;;;;;5071478;28;20552;-61
2023/01/10 05:10:56;;;;;;;5.70;1.73;;;2.60;99.90;;;;;;5063732;28;20435;-61
2023/01/10 05:13:22;;;;;;;9.43;1.90;;;2.60;99.90;;;;;;5058901;28;22659;-59
2023/01/10 05:15:47;;;;;;;4.10;1.73;;;2.70;99.90;;;;;;5048392;28;20211;-60
2023/01/10 05:18:13;;;;;;;7.87;3.20;;;2.70;99.90;;;;;;5055421;28;20424;-56
2023/01/10 05:20:39;;;;;;;7.73;2.37;;;2.70;99.90;;;;;;5062631;28;20252;-57
2023/01/10 05:23:04;;;;;;;6.70;1.73;;;2.70;99.90;;;;;;5061221;28;20228;-60
2023/01/10 05:25:30;;;;;;;6.93;2.77;;;2.80;99.90;;;;;;5065018;28;20673;-61
2023/01/10 05:27:56;;;;;;;6.30;2.27;;;2.80;99.90;;;;;;5064458;28;20189;-61
2023/01/10 05:30:22;;;;;;;2.93;1.70;;;2.70;99.90;;;;;;5067235;28;20490;-60
2023/01/10 05:32:47;;;;;;;3.83;1.50;;;2.80;99.90;;;;;;5059029;28;20184;-60
2023/01/10 05:35:13;;;;;;;5.53;1.77;;;2.80;99.90;;;;;;5063096;28;20193;-60
2023/01/10 05:37:39;;;;;;;5.17;1.57;;;2.80;99.90;;;;;;5065482;28;20212;-56
2023/01/10 05:40:05;;;;;;;1.90;1.67;;;2.80;99.90;;;;;;5065653;28;20175;-60
2023/01/10 05:42:30;;;;;;;2.27;1.23;;;2.70;99.90;;;;;;5055641;28;20451;-60
2023/01/10 05:44:56;;;;;;;4.70;1.80;;;2.70;99.90;;;;;;5061953;28;20415;-59
2023/01/10 05:47:22;;;;;;;2.03;1.33;;;2.70;99.90;;;;;;5056180;28;20188;-60
2023/01/10 05:49:47;;;;;;;4.17;1.77;;;2.70;99.90;;;;;;5068488;28;20179;-60
2023/01/10 05:52:13;;;;;;;3.30;1.73;;;2.70;99.90;;;;;;5067207;28;20643;-60
2023/01/10 05:54:39;;;;;;;8.77;2.20;;;2.70;99.90;;;;;;5056297;28;20282;-57
2023/01/10 05:57:05;;;;;;;8.50;1.90;;;2.70;99.90;;;;;;5067485;28;20557;-58
2023/01/10 05:59:31;;;;;;;4.73;1.97;;;2.70;99.90;;;;;;5070464;28;20425;-60
2023/01/10 06:01:56;;;;;;;7.23;2.10;;;2.70;99.90;;;;;;5063570;28;20260;-59
2023/01/10 06:04:22;;;;;;;7.70;2.77;;;2.70;99.90;;;;;;5076414;28;20167;-59
2023/01/10 06:06:48;;;;;;;8.53;2.47;;;2.70;99.90;;;;;;5064749;28;20197;-60
2023/01/10 06:09:13;;;;;;;8.87;2.53;;;2.70;99.90;;;;;;5068246;28;20174;-60
2023/01/10 06:11:39;;;;;;;8.47;2.10;;;2.70;99.90;;;;;;5057666;28;20174;-60
2023/01/10 06:14:06;;;;;;;8.17;1.97;;;2.70;99.90;;;;;;5062263;28;20178;-59
2023/01/10 06:16:32;;;;;;;7.73;2.10;;;2.70;99.90;;;;;;5062373;28;20285;-59
2023/01/10 06:18:58;;;;;;;12.40;2.90;;;2.70;99.90;;;;;;5063760;28;20593;-60
2023/01/10 06:21:23;;;;;;;6.20;2.30;;;2.70;99.90;;;;;;5070686;28;20412;-60
2023/01/10 06:23:49;;;;;;;5.87;2.13;;;2.60;99.90;;;;;;5070230;28;20212;-59
2023/01/10 06:26:14;;;;;;;6.83;2.20;;;2.60;99.90;;;;;;5062888;28;20839;-59
2023/01/10 06:28:40;;;;;;;5.20;2.30;;;2.60;99.90;;;;;;5062739;28;22137;-60
2023/01/10 06:31:07;;;;;;;5.93;2.60;;;2.60;99.90;;;;;;5072835;28;20190;-60
2023/01/10 06:33:33;;;;;;;4.90;1.90;;;2.60;99.90;;;;;;5071464;28;20210;-60
2023/01/10 06:35:58;;;;;;;5.17;1.90;;;2.60;99.90;;;;;;5065756;28;20471;-60
2023/01/10 06:38:24;;;;;;;3.30;1.80;;;2.50;99.90;;;;;;5075061;28;20587;-60
2023/01/10 06:40:50;;;;;;;6.93;2.60;;;2.50;99.90;;;;;;5070342;28;20175;-59
2023/01/10 06:43:15;;;;;;;5.13;2.80;;;2.50;99.90;;;;;;5063508;28;20751;-60
2023/01/10 06:45:41;;;;;;;7.17;3.87;;;2.50;99.90;;;;;;5069377;28;20239;-60
2023/01/10 06:48:07;;;;;;;4.97;2.57;;;2.60;99.90;;;;;;5067371;28;20180;-60
2023/01/10 06:50:32;;;;;;;7.93;3.43;;;2.60;99.90;;;;;;5069994;28;20505;-59
2023/01/10 06:53:00;;;;;;;3.87;2.63;;;2.60;99.90;;;;;;5059440;28;20180;-60
2023/01/10 06:55:26;;;;;;;5.93;2.50;;;2.50;99.90;;;;;;5058263;28;20194;-61
2023/01/10 06:58:03;;;;;;;9.83;3.17;;;2.50;99.90;;;;;;5071332;28;20993;-60
2023/01/10 07:00:29;;;;;;;3.53;2.40;;;2.50;99.90;;;;;;5070012;28;20543;-59
2023/01/10 07:02:59;;;;;;;6.50;2.30;;;2.40;99.90;;;;;;5060374;28;20432;-60
2023/01/10 07:05:25;;;;;;;5.47;2.47;;;2.40;99.90;;;;;;5069585;28;20454;-59
2023/01/10 07:07:51;;;;;;;8.60;2.43;;;2.40;99.90;;;;;;5075982;28;20427;-59
2023/01/10 07:10:16;;;;;;;13.03;3.20;;;2.30;99.90;;;;;;5064608;28;20274;-60
2023/01/10 07:12:42;;;;;;;3.27;2.27;;;2.30;99.90;;;;;;5067804;28;20167;-60
2023/01/10 07:15:08;;;;;;;5.00;2.07;;;2.30;99.90;;;;;;5071435;28;20194;-60
2023/01/10 07:17:34;;;;;;;5.87;2.03;;;2.30;99.90;;;;;;5062347;28;20195;-60
2023/01/10 07:19:59;;;;;;;6.80;2.00;;;2.30;99.90;;;;;;5063577;28;20430;-59
2023/01/10 07:22:25;;;;;;;2.60;1.97;;;2.30;99.90;;;;;;5052445;28;20804;-60
2023/01/10 07:24:51;;;;;;;3.43;1.80;;;2.20;99.90;;;;;;5069258;28;20378;-60
2023/01/10 07:27:16;;;;;;;5.20;2.43;;;2.20;99.90;;;;;;5067501;28;20228;-60
2023/01/10 07:29:42;;;;;;;9.33;1.80;;;2.20;99.90;;;;;;5069003;28;20182;-59
2023/01/10 07:32:08;;;;;;;2.90;2.23;;;2.20;99.90;;;;;;5069946;28;20196;-60
2023/01/10 07:34:33;;;;;;;2.60;1.70;;;2.30;99.90;;;;;;5059746;28;20201;-59
2023/01/10 07:37:00;;;;;;;6.17;2.03;;;2.30;99.90;;;;;;5063659;28;20230;-60
2023/01/10 07:39:26;;;;;;;5.03;2.33;;;2.30;99.90;;;;;;5068879;28;20401;-60
2023/01/10 07:41:52;;;;;;;5.43;2.20;;;2.40;99.90;;;;;;5067209;28;21156;-60
2023/01/10 07:44:17;;;;;;;6.70;2.43;;;2.40;99.90;;;;;;5052237;28;20167;-59
2023/01/10 07:46:43;;;;;;;4.63;2.47;;;2.40;99.90;;;;;;5063325;28;20463;-60
2023/01/10 07:49:09;;;;;;;5.73;3.20;;;2.40;99.90;;;;;;5068466;28;20193;-60
2023/01/10 07:51:34;;;;;;;4.30;2.67;;;2.40;99.90;;;;;;5069237;28;20434;-60
2023/01/10 07:54:00;;;;;;;5.87;3.00;;;2.50;99.90;;;;;;5060543;28;20173;-59
2023/01/10 07:56:26;;;;;;;5.87;2.60;;;2.50;99.90;;;;;;5067243;28;20220;-61
2023/01/10 07:58:51;;;;;;;7.50;2.50;;;2.50;99.90;;;;;;5067152;28;20195;-60
2023/01/10 08:01:17;;;;;;;3.50;2.60;;;2.50;99.90;;;;;;5059854;28;20177;-60
2023/01/10 08:03:42;;;;;;;11.43;3.30;;;2.50;99.90;;;;;;5068264;28;20178;-60
2023/01/10 08:06:10;;;;;;;7.13;3.90;;;2.50;99.90;;;;;;5075189;28;20190;-60
2023/01/10 08:08:35;;;;;;;6.97;2.80;;;2.50;99.90;;;;;;5067689;28;20602;-60
2023/01/10 08:11:01;;;;;;;9.43;3.20;;;2.50;99.90;;;;;;5064875;28;20420;-60
2023/01/10 08:13:28;;;;;;;12.47;2.80;;;2.50;99.90;;;;;;5069353;28;20681;-59
2023/01/10 08:15:54;;;;;;;6.50;3.10;;;2.50;99.90;;;;;;5068105;28;20862;-60
2023/01/10 08:18:21;;;;;;;5.67;2.70;;;2.50;99.90;;;;;;5065640;28;20544;-60
2023/01/10 08:20:51;;;;;;;12.40;3.40;;;2.50;99.90;;;;;;5063866;28;20658;-60
2023/01/10 08:23:17;;;;;;;6.83;2.77;;;2.60;99.90;;;;;;5068893;28;20457;-60
2023/01/10 08:25:43;;;;;;;3.37;2.03;;;2.60;99.90;;;;;;5065832;28;20459;-60
2023/01/10 08:28:09;;;;;;;9.73;3.10;;;2.60;99.90;;;;;;5050741;28;20437;-60
2023/01/10 08:30:35;;;;;;;7.17;2.40;;;2.70;99.90;;;;;;5065832;28;20182;-60
2023/01/10 08:33:05;;;;;;;9.20;4.30;;;2.70;99.90;;;;;;5068655;28;20171;-60
2023/01/10 08:35:35;;;;;;;6.97;2.77;;;2.70;99.90;;;;;;5067370;28;20952;-60
2023/01/10 08:38:01;;;;;;;6.83;2.33;;;2.70;99.90;;;;;;5059989;28;20465;-60
2023/01/10 08:40:26;;;;;;;8.17;2.77;;;2.70;99.90;;;;;;5068318;28;20489;-60
2023/01/10 08:43:00;;;;;;;5.53;2.80;;;2.70;99.90;;;;;;5056418;28;20222;-60
2023/01/10 08:45:26;;;;;;;6.20;2.40;;;2.80;99.90;;;;;;5060392;28;20202;-59
2023/01/10 08:47:52;;;;;;;5.17;1.93;;;2.80;99.90;;;;;;5057425;28;20439;-60
2023/01/10 08:50:18;;;;;;;4.37;2.57;;;2.80;99.90;;;;;;5065091;28;20448;-60
2023/01/10 08:52:43;;;;;;;8.47;2.93;;;2.80;99.90;;;;;;5067426;28;20425;-60
2023/01/10 08:55:09;;;;;;;6.07;2.70;;;2.80;99.90;;;;;;5070640;28;20177;-61
2023/01/10 08:57:35;;;;;;;8.73;2.40;;;2.90;99.90;;;;;;5063652;28;20225;-60
2023/01/10 09:00:01;;;;;;;2.73;1.83;;;2.90;99.90;;;;;;5061547;28;20439;-60
2023/01/10 09:02:26;;;;;;;5.83;2.50;;;2.90;99.90;;;;;;5064658;28;20179;-60
2023/01/10 09:04:52;;;;;;;6.10;2.63;;;2.90;99.90;;;;;;5065579;28;20577;-60
2023/01/10 09:07:17;;;;;;;5.40;2.47;;;3.00;99.90;;;;;;5063165;28;20686;-60
2023/01/10 09:09:43;;;;;;;8.67;2.43;;;3.00;99.90;;;;;;5066864;28;20178;-60
2023/01/10 09:14:53;;;;;;;4.20;2.20;;;3.00;99.90;;;;;;5059346;28;20212;-60
2023/01/10 09:17:19;;;;;;;2.73;2.53;;;3.00;99.90;;;;;;5066872;28;20468;-60
2023/01/10 09:19:44;;;;;;;5.80;2.63;;;3.00;99.90;;;;;;5077145;28;20184;-60
2023/01/10 09:22:10;;;;;;;3.47;2.20;;;3.00;99.90;;;;;;5059131;28;20179;-60
2023/01/10 09:24:38;;;;;;;5.10;2.50;;;3.00;99.90;;;;;;5068532;28;20275;-60
2023/01/10 09:27:04;;;;;;;5.20;2.77;;;3.10;99.90;;;;;;5067913;28;20228;-60
2023/01/10 09:29:30;;;;;;;6.70;2.40;;;3.10;99.90;;;;;;5073306;28;20530;-60
2023/01/10 09:31:55;;;;;;;7.70;3.20;;;3.10;99.90;;;;;;5071860;28;20190;-60
2023/01/10 09:34:23;;;;;;;3.53;2.37;;;3.20;99.90;;;;;;5066913;28;20183;-60
2023/01/10 09:36:49;;;;;;;4.60;2.00;;;3.20;99.90;;;;;;5061888;28;20298;-60
2023/01/10 09:39:14;;;;;;;4.93;2.30;;;3.20;99.90;;;;;;5062836;28;20512;-60
2023/01/10 09:42:12;;;;;;;3.90;1.70;;;3.20;99.90;;;;;;5052850;28;20225;-60
2023/01/10 09:44:50;;;;;;;4.13;2.20;;;3.30;99.90;;;;;;5071594;28;20193;-60
2023/01/10 09:47:46;;;;;;;8.60;2.47;;;3.30;99.90;;;;;;5074585;28;20452;-60
2023/01/10 09:50:18;;;;;;;6.17;2.20;;;3.40;99.90;;;;;;5068019;28;20440;-60
2023/01/10 09:52:52;;;;;;;7.43;2.67;;;3.40;99.90;;;;;;5061210;28;20474;-60
2023/01/10 09:55:21;;;;;;;7.00;2.27;;;3.50;99.90;;;;;;5065078;28;20989;-60
2023/01/10 09:57:48;;;;;;;4.07;2.63;;;3.60;99.90;;;;;;5068514;28;20498;-61
2023/01/10 10:00:26;;;;;;;5.70;2.07;;;3.80;99.90;;;;;;5071424;28;20439;-60
2023/01/10 10:02:52;;;;;;;6.60;2.10;;;4.00;99.90;;;;;;5074235;28;20975;-60
2023/01/10 10:05:24;;;;;;;3.73;1.80;;;4.10;99.90;;;;;;5069402;28;21113;-60
2023/01/10 10:07:56;;;;;;;3.37;1.70;;;4.20;99.90;;;;;;5061267;28;21052;-60
2023/01/10 10:10:33;;;;;;;7.23;2.13;;;4.30;99.90;;;;;;5057786;28;21079;-60
2023/01/10 10:13:22;;;;;;;4.37;2.13;;;4.20;99.90;;;;;;5062610;28;20528;-60
2023/01/10 10:15:57;;;;;;;5.53;2.03;;;4.10;99.90;;;;;;5058804;28;20473;-60
2023/01/10 10:18:58;;;;;;;3.60;2.10;;;4.00;99.90;;;;;;5071968;28;20470;-60
2023/01/10 10:22:01;;;;;;;5.60;2.40;;;4.00;99.90;;;;;;5051494;28;20483;-60
2023/01/10 10:24:45;;;;;;;3.40;1.97;;;3.90;99.90;;;;;;5059866;28;21030;-60
2023/01/10 10:27:36;;;;;;;5.40;1.90;;;3.90;99.90;;;;;;5063428;28;20442;-59
2023/01/10 10:30:08;;;;;;;11.70;2.50;;;3.90;99.90;;;;;;5036934;28;20423;-60
2023/01/10 10:32:42;;;;;;;8.67;1.77;;;3.90;99.90;;;;;;5071491;28;20443;-60
2023/01/10 10:35:31;;;;;;;5.50;2.03;;;3.90;99.90;;;;;;5075082;28;20444;-60
2023/01/10 10:38:18;;;;;;;2.70;2.30;;;4.00;99.90;;;;;;5061560;28;20476;-60
2023/01/10 10:40:45;;;;;;;6.30;2.50;;;4.00;99.90;;;;;;5061089;28;20452;-60
2023/01/10 10:43:24;;;;;;;4.10;2.20;;;4.00;99.90;;;;;;5070505;28;20487;-61
2023/01/10 10:46:16;;;;;;;5.03;2.10;;;4.10;99.90;;;;;;5061700;28;20494;-60
2023/01/10 10:48:57;;;;;;;5.13;2.60;;;4.10;99.90;;;;;;5066801;28;20436;-60
2023/01/10 10:51:37;;;;;;;6.10;2.40;;;4.10;99.90;;;;;;5069518;28;20435;-60
2023/01/10 10:54:05;;;;;;;2.50;1.90;;;4.10;99.90;;;;;;5069535;28;20507;-61
2023/01/10 10:56:31;;;;;;;6.17;2.40;;;4.00;99.90;;;;;;5065474;28;20836;-60
2023/01/10 10:58:58;;;;;;;6.23;2.47;;;4.00;99.90;;;;;;5064736;28;20433;-60
2023/01/10 11:01:24;;;;;;;9.97;2.20;;;4.00;99.90;;;;;;5075393;28;20508;-56
2023/01/10 11:04:07;;;;;;;7.73;2.70;;;4.00;99.90;;;;;;5069748;28;20467;-58
2023/01/10 11:06:37;;;;;;;6.93;2.20;;;4.10;99.90;;;;;;5062518;28;21008;-58
2023/01/10 11:09:04;;;;;;;6.00;1.70;;;4.10;99.90;;;;;;5059685;28;20526;-59
2023/01/10 11:11:44;;;;;;;12.87;3.93;;;4.10;99.90;;;;;;5068577;28;20456;-59
2023/01/10 11:14:11;;;;;;;2.30;2.07;;;4.10;99.90;;;;;;5064730;28;20435;-58
2023/01/10 11:16:40;;;;;;;8.00;2.20;;;4.10;99.90;;;;;;5060653;28;20468;-58
2023/01/10 11:19:17;;;;;;;12.80;3.70;;;4.20;99.90;;;;;;5056546;28;20486;-60
2023/01/10 11:22:01;;;;;;;5.40;2.00;;;4.30;99.90;;;;;;5065956;28;20424;-58
2023/01/10 11:24:32;;;;;;;5.77;2.60;;;4.60;99.90;;;;;;5060946;28;20959;-58
2023/01/10 11:27:01;;;;;;;3.53;2.07;;;4.90;99.90;;;;;;5072222;28;20476;-57
2023/01/10 11:29:41;;;;;;;6.40;2.20;;;5.10;99.90;;;;;;5067171;28;20463;-58
2023/01/10 11:32:16;;;;;;;4.77;1.73;;;5.10;99.90;;;;;;5066790;28;20440;-58
2023/01/10 11:34:53;;;;;;;5.30;2.20;;;5.10;99.90;;;;;;5063746;28;20442;-58
2023/01/10 11:37:31;;;;;;;6.73;2.00;;;4.90;99.90;;;;;;5061355;28;22376;-58
2023/01/10 11:40:22;;;;;;;7.30;2.77;;;4.90;99.90;;;;;;5069861;28;20847;-59
2023/01/10 11:42:49;;;;;;;2.60;1.67;;;4.80;99.90;;;;;;5067528;28;20431;-59
2023/01/10 11:45:17;;;;;;;5.70;2.73;;;4.80;99.90;;;;;;5068182;28;20433;-58
2023/01/10 11:47:47;;;;;;;4.93;1.83;;;4.80;99.90;;;;;;5066901;28;20505;-59
2023/01/10 11:50:20;;;;;;;5.80;2.10;;;4.80;99.90;;;;;;5065222;28;20974;-58
2023/01/10 11:52:48;;;;;;;4.33;1.57;;;4.70;99.90;;;;;;5068899;28;20479;-59
2023/01/10 11:55:30;;;;;;;6.43;1.90;;;4.70;99.90;;;;;;5059657;28;20438;-58
2023/01/10 11:58:09;;;;;;;8.80;1.93;;;4.60;99.90;;;;;;5068083;28;20468;-60
2023/01/10 12:00:47;;;;;;;3.93;2.17;;;4.60;99.90;;;;;;5061989;28;20439;-59
2023/01/10 12:03:28;;;;;;;4.77;2.10;;;4.60;99.90;;;;;;5061397;28;20455;-58
2023/01/10 12:06:17;;;;;;;7.77;2.00;;;4.60;99.90;;;;;;5066053;28;20478;-58
2023/01/10 12:08:43;;;;;;;26.80;10.40;;;4.60;99.90;;;;;;5055291;28;20437;-58
2023/01/10 12:11:12;;;;;;;3.63;1.50;;;4.70;99.90;;;;;;5068831;28;20416;-58
2023/01/10 12:13:53;;;;;;;9.63;2.57;;;4.60;99.90;;;;;;5056616;28;20586;-58
2023/01/10 12:16:18;;;;;;;5.77;2.10;;;4.60;99.90;;;;;;5064527;28;20474;-57
2023/01/10 12:18:45;;;;;;;7.50;2.50;;;4.50;99.90;;;;;;5067911;28;20409;-57
2023/01/10 12:21:14;;;;;;;5.50;1.97;;;4.50;99.90;;;;;;5064101;28;20224;-58
2023/01/10 12:23:43;;;;;;;4.80;2.73;;;4.40;99.90;;;;;;5061232;28;20436;-58
2023/01/10 12:26:12;;;;;;;5.43;1.93;;;4.40;99.90;;;;;;5064206;28;20833;-58
2023/01/10 12:28:42;;;;;;;4.47;2.30;;;4.40;99.90;;;;;;5069161;28;20444;-58
2023/01/10 12:31:13;;;;;;;3.90;1.80;;;4.30;99.90;;;;;;5063338;28;20570;-58
2023/01/10 12:33:50;;;;;;;5.17;1.70;;;4.30;99.90;;;;;;5064967;28;21005;-56
2023/01/10 12:37:00;;;;;;;4.40;1.97;;;4.30;99.90;;;;;;5065217;28;20819;-58
2023/01/10 12:39:32;;;;;;;3.67;1.60;;;4.30;99.90;;;;;;5000746;28;20435;-58
2023/01/10 12:45:13;;;;;;;7.57;2.57;;;4.30;99.90;;;;;;5043547;28;20456;-57
2023/01/10 12:47:53;;;;;;;2.80;1.57;;;4.40;99.90;;;;;;5062088;28;20509;-58
2023/01/10 12:50:39;;;;;;;4.40;1.80;;;4.50;99.90;;;;;;5064009;28;20448;-58
2023/01/10 12:53:20;;;;;;;3.27;1.30;;;4.60;99.90;;;;;;5071884;28;20455;-58
2023/01/10 12:55:47;;;;;;;7.40;2.27;;;4.70;99.90;;;;;;5069172;28;20471;-58
2023/01/10 12:58:44;;;;;;;10.93;1.87;;;4.80;99.90;;;;;;5059195;28;20629;-58
2023/01/10 13:01:15;;;;;;;6.93;2.10;;;4.80;99.90;;;;;;5067062;28;20424;-58
2023/01/10 13:03:43;;;;;;;4.90;2.10;;;4.90;99.90;;;;;;5070375;28;20535;-58
2023/01/10 13:06:21;;;;;;;3.00;1.67;;;4.90;99.90;;;;;;5067821;28;20465;-59
2023/01/10 13:08:48;;;;;;;8.97;2.13;;;4.90;99.90;;;;;;5061352;28;20428;-58
2023/01/10 13:11:16;;;;;;;7.50;2.70;;;4.90;99.90;;;;;;5068332;28;20432;-58
2023/01/10 13:13:51;;;;;;;8.90;3.10;;;4.90;99.90;;;;;;5077141;28;20619;-58
2023/01/10 13:16:47;;;;;;;5.00;2.40;;;4.80;99.90;;;;;;5069345;28;20463;-58
2023/01/10 13:19:13;;;;;;;4.97;2.10;;;4.80;99.90;;;;;;5066050;28;20437;-58
2023/01/10 13:21:41;;;;;;;11.03;2.27;;;4.70;99.90;;;;;;5061007;28;20844;-56
2023/01/10 13:24:25;;;;;;;15.73;2.57;;;4.70;99.90;;;;;;5057654;28;20470;-59
2023/01/10 13:26:57;;;;;;;10.73;2.40;;;4.60;99.90;;;;;;5059554;28;20452;-58
2023/01/10 13:29:42;;;;;;;6.03;2.37;;;4.60;99.90;;;;;;5065980;28;21251;-58
2023/01/10 13:32:31;;;;;;;6.40;1.70;;;4.60;99.90;;;;;;5062197;28;21259;-58